Time;durP1;ratioP1;P1;durP2;ratioP2;P2;SDS_P1;SDS_P2;PMS_P1;PMS_P2;Temp;Humidity;BMP_temperature;BMP_pressure;BME280_temperature;BME280_humidity;BME280_pressure;Samples;Min_cycle;Max_cycle;Signal;HPM_P1;HPM_P2
2023/06/20 00:00:06;;;;;;;3.92;2.95;;;;;;;17.96;68.80;100029.22;4920368;29;20032;-46
2023/06/20 00:02:33;;;;;;;5.97;3.43;;;;;;;17.94;69.01;100040.06;4918953;29;20072;-45
2023/06/20 00:05:02;;;;;;;5.47;2.72;;;;;;;17.88;69.03;100036.91;4920924;29;20036;-45
2023/06/20 00:07:29;;;;;;;6.97;3.30;;;;;;;17.84;69.04;100032.53;4903854;29;20084;-46
2023/06/20 00:09:56;;;;;;;8.60;3.83;;;;;;;17.86;69.06;100027.31;4921012;29;20383;-46
2023/06/20 00:12:23;;;;;;;6.88;3.10;;;;;;;17.83;69.21;100026.13;4921049;29;20087;-46
2023/06/20 00:14:50;;;;;;;7.65;3.33;;;;;;;17.82;69.32;100023.75;4920674;29;20068;-46
2023/06/20 00:17:16;;;;;;;6.82;3.42;;;;;;;17.76;69.48;100023.41;4919937;29;20051;-45
2023/06/20 00:19:43;;;;;;;8.65;2.50;;;;;;;17.77;69.57;100029.78;4920852;29;20048;-46
2023/06/20 00:22:10;;;;;;;8.07;3.55;;;;;;;17.77;69.63;100029.78;4920703;29;20051;-46
2023/06/20 00:24:37;;;;;;;4.57;2.78;;;;;;;17.79;69.65;100041.38;4920743;29;20491;-46
2023/06/20 00:27:04;;;;;;;7.13;4.07;;;;;;;17.80;69.62;100048.56;4920554;29;20384;-45
2023/06/20 00:29:31;;;;;;;4.88;2.80;;;;;;;17.79;69.84;100046.97;4920762;29;20065;-46
2023/06/20 00:31:57;;;;;;;6.70;2.95;;;;;;;17.75;69.86;100040.59;4919317;29;20451;-45
2023/06/20 00:34:25;;;;;;;4.28;3.05;;;;;;;17.66;70.11;100029.06;4919544;29;20066;-46
2023/06/20 00:36:52;;;;;;;3.95;2.50;;;;;;;17.61;70.35;100039.47;4903293;29;20344;-46
2023/06/20 00:39:19;;;;;;;7.55;3.50;;;;;;;17.62;70.79;100032.69;4920972;29;20048;-45
2023/06/20 00:41:45;;;;;;;5.88;3.25;;;;;;;17.63;70.79;100028.66;4919139;29;20071;-45
2023/06/20 00:44:12;;;;;;;6.03;3.35;;;;;;;17.63;70.83;100027.88;4918971;29;20183;-46
2023/06/20 00:46:40;;;;;;;9.25;3.13;;;;;;;17.59;71.09;100021.50;4917540;29;20526;-48
2023/06/20 00:49:10;;;;;;;6.72;3.33;;;;;;;17.55;71.35;100024.31;4917739;29;20537;-45
2023/06/20 00:51:37;;;;;;;6.82;3.85;;;;;;;17.53;71.53;100023.94;4913703;29;20435;-45
2023/06/20 00:54:04;;;;;;;4.80;3.03;;;;;;;17.50;71.54;100021.16;4917466;29;20052;-47
2023/06/20 00:56:32;;;;;;;8.90;3.38;;;;;;;17.45;72.09;100022.34;4917360;29;20135;-45
2023/06/20 00:58:59;;;;;;;11.02;3.60;;;;;;;17.43;72.29;100015.56;4917631;29;20066;-46
2023/06/20 01:01:31;;;;;;;8.07;4.55;;;;;;;17.40;72.61;100008.78;4915836;29;20056;-45
2023/06/20 01:04:00;;;;;;;9.10;3.83;;;;;;;17.39;72.79;100018.41;4917400;29;20056;-46
2023/06/20 01:06:35;;;;;;;5.18;3.08;;;;;;;17.40;72.81;100020.00;4917249;29;20052;-45
2023/06/20 01:09:26;;;;;;;5.25;3.25;;;;;;;17.39;73.01;100021.22;4916451;29;20052;-45
2023/06/20 01:12:02;;;;;;;5.57;2.85;;;;;;;17.39;72.75;100024.00;4917448;29;20063;-46
2023/06/20 01:14:29;;;;;;;5.50;3.33;;;;;;;17.38;72.97;100022.41;4917369;29;20066;-45
2023/06/20 01:17:09;;;;;;;10.18;3.60;;;;;;;17.32;73.18;100018.44;4917157;29;20139;-45
2023/06/20 01:20:04;;;;;;;8.95;3.63;;;;;;;17.30;73.28;100018.06;4917340;29;20083;-45
2023/06/20 01:22:49;;;;;;;6.45;3.30;;;;;;;17.21;73.38;100020.47;4917268;29;20052;-46
2023/06/20 01:25:34;;;;;;;8.73;3.92;;;;;;;17.19;73.54;100013.72;4915859;29;20498;-45
2023/06/20 01:28:23;;;;;;;9.20;4.22;;;;;;;17.16;73.68;100023.72;4917091;29;20085;-46
2023/06/20 01:31:00;;;;;;;5.15;3.33;;;;;;;17.14;73.54;100017.72;4916088;29;20039;-45
2023/06/20 01:33:32;;;;;;;7.90;3.40;;;;;;;17.11;73.63;100023.34;4916749;29;20518;-45
2023/06/20 01:36:01;;;;;;;6.75;4.00;;;;;;;17.07;73.67;100023.38;4916867;29;20052;-47
2023/06/20 01:38:32;;;;;;;5.50;4.20;;;;;;;17.01;73.83;100020.19;4916907;29;20055;-48
2023/06/20 01:41:01;;;;;;;9.50;3.10;;;;;;;16.99;73.85;100030.19;4881150;29;20044;-51
2023/06/20 01:43:30;;;;;;;6.10;3.40;;;;;;;17.02;73.81;100021.00;4914107;29;20310;-45
2023/06/20 01:45:57;;;;;;;5.32;3.92;;;;;;;17.06;73.92;100021.75;4916617;29;20086;-45
2023/06/20 01:48:25;;;;;;;12.48;3.78;;;;;;;17.06;73.80;100018.97;4916515;29;20052;-45
2023/06/20 01:50:53;;;;;;;7.97;3.53;;;;;;;17.02;73.93;100021.78;4916339;29;20183;-46
2023/06/20 01:53:23;;;;;;;11.20;3.28;;;;;;;17.00;74.04;100026.19;4916613;29;20056;-45
2023/06/20 01:55:52;;;;;;;6.80;3.42;;;;;;;16.99;74.02;100027.41;4916004;29;20062;-46
2023/06/20 01:58:19;;;;;;;4.65;3.60;;;;;;;16.99;74.10;100030.19;4916473;29;20052;-46
2023/06/20 02:00:48;;;;;;;5.93;3.05;;;;;;;16.99;74.14;100027.41;4913483;29;20044;-45
2023/06/20 02:03:19;;;;;;;5.18;2.90;;;;;;;16.97;73.95;100024.22;4916167;29;20073;-46
2023/06/20 02:05:48;;;;;;;9.57;4.10;;;;;;;16.92;74.09;100027.41;4916463;29;20566;-46
2023/06/20 02:08:15;;;;;;;5.53;3.45;;;;;;;16.85;74.24;100030.25;4915975;29;20359;-46
2023/06/20 02:10:42;;;;;;;11.25;4.00;;;;;;;16.78;74.55;100028.28;4916063;29;20158;-45
2023/06/20 02:13:10;;;;;;;12.27;4.95;;;;;;;16.73;74.90;100033.47;4916231;29;20076;-46
2023/06/20 02:15:41;;;;;;;7.30;3.92;;;;;;;16.68;75.09;100034.69;4898422;29;20059;-46
2023/06/20 02:18:08;;;;;;;10.63;5.50;;;;;;;16.69;75.41;100039.06;4915980;29;20052;-46
2023/06/20 02:20:35;;;;;;;7.68;3.92;;;;;;;16.69;75.68;100036.28;4915972;29;20048;-46
2023/06/20 02:23:07;;;;;;;7.85;4.00;;;;;;;16.67;75.93;100035.09;4916216;29;20037;-45
2023/06/20 02:25:35;;;;;;;9.02;4.38;;;;;;;16.68;75.97;100040.25;4899021;29;20047;-45
2023/06/20 02:28:03;;;;;;;4.82;3.47;;;;;;;16.74;76.09;100032.25;4915762;29;20454;-45
2023/06/20 02:30:31;;;;;;;9.10;3.80;;;;;;;16.72;76.11;100017.91;4896269;29;20097;-47
2023/06/20 02:33:02;;;;;;;9.63;3.38;;;;;;;16.67;76.50;100033.09;4914074;29;20048;-46
2023/06/20 02:35:32;;;;;;;7.85;4.63;;;;;;;16.65;76.53;100034.69;4915811;29;20521;-46
2023/06/20 02:38:01;;;;;;;7.63;3.22;;;;;;;16.64;76.57;100027.50;4915688;29;20064;-46
2023/06/20 02:40:28;;;;;;;6.07;3.95;;;;;;;16.65;76.66;100040.28;4915556;29;20546;-45
2023/06/20 02:42:54;;;;;;;7.95;3.60;;;;;;;16.66;76.92;100039.06;4915260;29;20052;-47
2023/06/20 02:45:21;;;;;;;4.95;3.83;;;;;;;16.68;76.69;100039.50;4915899;29;20116;-45
2023/06/20 02:47:48;;;;;;;8.20;3.78;;;;;;;16.63;76.64;100046.28;4915484;29;20139;-46
2023/06/20 02:50:34;;;;;;;6.38;3.38;;;;;;;16.63;76.88;100031.50;4910319;29;20052;-46
2023/06/20 02:53:12;;;;;;;7.93;4.50;;;;;;;16.63;76.83;100042.66;4911293;29;20051;-45
2023/06/20 02:55:50;;;;;;;8.43;5.43;;;;;;;16.62;76.92;100046.69;4915483;29;20187;-46
2023/06/20 02:58:21;;;;;;;5.70;4.00;;;;;;;16.60;77.51;100049.88;4913062;29;20055;-46
2023/06/20 03:00:50;;;;;;;5.53;3.83;;;;;;;16.59;77.20;100059.47;4983167;23;20088;-45
2023/06/20 03:03:32;;;;;;;7.70;4.00;;;;;;;16.59;77.19;100044.69;4892400;23;20060;-45
2023/06/20 03:06:01;;;;;;;4.68;3.95;;;;;;;16.55;77.35;100041.13;4896274;29;20455;-49
2023/06/20 03:08:29;;;;;;;7.20;3.65;;;;;;;16.54;77.54;100047.91;4913455;29;20062;-45
2023/06/20 03:10:57;;;;;;;9.48;4.95;;;;;;;16.51;77.59;100043.88;4914932;29;20458;-45
2023/06/20 03:13:25;;;;;;;6.38;3.67;;;;;;;16.50;77.50;100049.84;4898281;29;20052;-46
2023/06/20 03:15:52;;;;;;;9.10;4.53;;;;;;;16.49;77.74;100042.69;4914862;29;20055;-47
2023/06/20 03:18:19;;;;;;;6.55;4.07;;;;;;;16.51;77.82;100043.88;4914912;29;20054;-46
2023/06/20 03:20:48;;;;;;;7.25;5.53;;;;;;;16.50;77.81;100044.25;4914979;29;20380;-45
2023/06/20 03:23:15;;;;;;;12.60;5.32;;;;;;;16.49;77.84;100042.69;4915240;29;20060;-45
2023/06/20 03:25:43;;;;;;;9.27;4.05;;;;;;;16.47;77.98;100042.31;4914227;29;20051;-46
2023/06/20 03:28:09;;;;;;;7.28;4.82;;;;;;;16.49;78.08;100045.47;4914901;29;20092;-45
2023/06/20 03:30:36;;;;;;;7.95;4.28;;;;;;;16.47;78.17;100039.50;4913326;29;20119;-45
2023/06/20 03:33:03;;;;;;;4.85;3.58;;;;;;;16.45;78.27;100037.09;4915156;29;20451;-46
2023/06/20 03:35:30;;;;;;;5.63;3.47;;;;;;;16.42;78.41;100038.69;4914743;29;20052;-45
2023/06/20 03:37:57;;;;;;;7.50;3.63;;;;;;;16.42;78.43;100032.31;4914857;29;20051;-45
2023/06/20 03:40:24;;;;;;;5.57;3.50;;;;;;;16.47;78.51;100033.91;4914690;29;20051;-45
2023/06/20 03:42:51;;;;;;;4.25;3.72;;;;;;;16.48;78.39;100035.50;4914128;29;20048;-46
2023/06/20 03:45:18;;;;;;;6.55;3.63;;;;;;;16.51;78.37;100041.09;4914829;29;20040;-45
2023/06/20 03:47:45;;;;;;;6.53;3.40;;;;;;;16.52;78.26;100039.09;4914879;29;20574;-46
2023/06/20 03:50:12;;;;;;;8.93;3.58;;;;;;;16.50;78.38;100031.09;4914856;29;20058;-45
2023/06/20 03:52:38;;;;;;;7.20;3.45;;;;;;;16.50;78.32;100036.69;4914605;29;20107;-47
2023/06/20 03:55:06;;;;;;;5.72;3.38;;;;;;;16.50;78.39;100033.09;4913799;29;20095;-46
2023/06/20 03:57:33;;;;;;;10.00;3.88;;;;;;;16.49;78.40;100037.91;4914665;29;20059;-46
2023/06/20 04:00:00;;;;;;;5.35;3.70;;;;;;;16.51;78.38;100041.09;4912824;29;20054;-46
2023/06/20 04:02:27;;;;;;;8.18;3.45;;;;;;;16.49;78.33;100032.31;4914602;29;20108;-45
2023/06/20 04:04:53;;;;;;;7.20;3.17;;;;;;;16.50;78.39;100031.09;4914711;29;20067;-46
2023/06/20 04:07:20;;;;;;;8.13;3.85;;;;;;;16.52;78.33;100025.13;4914689;29;20052;-46
2023/06/20 04:09:50;;;;;;;5.55;3.10;;;;;;;16.52;78.29;100036.31;4914780;29;20055;-45
2023/06/20 04:12:17;;;;;;;4.15;3.28;;;;;;;16.52;78.20;100025.91;4897438;29;20447;-45
2023/06/20 04:14:44;;;;;;;5.20;3.28;;;;;;;16.49;78.31;100034.31;4913787;29;20108;-45
2023/06/20 04:17:11;;;;;;;9.82;4.82;;;;;;;16.47;78.17;100033.91;4897670;29;20044;-47
2023/06/20 04:19:38;;;;;;;5.78;3.78;;;;;;;16.38;78.21;100037.94;4917390;29;20056;-45
2023/06/20 04:22:05;;;;;;;7.53;3.65;;;;;;;16.33;78.17;100032.75;4917977;29;20436;-46
2023/06/20 04:24:32;;;;;;;6.38;4.43;;;;;;;16.30;78.44;100027.16;4918048;29;20052;-48
2023/06/20 04:26:59;;;;;;;6.13;3.63;;;;;;;16.33;78.49;100024.38;4917711;29;20115;-45
2023/06/20 04:29:29;;;;;;;5.43;3.20;;;;;;;16.36;78.66;100017.94;4916860;29;20048;-45
2023/06/20 04:31:57;;;;;;;7.18;3.28;;;;;;;16.42;78.53;100013.56;4914983;29;20064;-46
2023/06/20 04:34:24;;;;;;;4.32;3.20;;;;;;;16.44;78.53;100019.53;4908297;29;20139;-45
2023/06/20 04:36:54;;;;;;;5.50;3.42;;;;;;;16.47;78.51;100017.16;4917664;29;20056;-45
2023/06/20 04:39:20;;;;;;;8.70;4.20;;;;;;;16.48;78.35;100021.53;4918114;29;20048;-48
2023/06/20 04:41:47;;;;;;;3.08;2.75;;;;;;;16.51;78.45;100020.72;4917583;29;20048;-46
2023/06/20 04:44:14;;;;;;;8.35;3.35;;;;;;;16.52;78.38;100025.13;4917852;29;20048;-45
2023/06/20 04:46:41;;;;;;;3.97;3.22;;;;;;;16.53;78.46;100026.72;4917745;29;20091;-45
2023/06/20 04:49:07;;;;;;;5.70;3.17;;;;;;;16.54;78.60;100031.13;4913216;29;20036;-45
2023/06/20 04:51:34;;;;;;;5.90;3.60;;;;;;;16.58;78.63;100031.91;4915150;29;20066;-45
2023/06/20 04:54:01;;;;;;;7.18;5.13;;;;;;;16.59;78.63;100030.72;4917542;29;20052;-46
2023/06/20 04:56:28;;;;;;;5.32;3.58;;;;;;;16.62;78.76;100024.31;4917603;29;20049;-45
2023/06/20 04:58:59;;;;;;;4.05;3.65;;;;;;;16.61;78.86;100025.50;4917260;29;20063;-47
2023/06/20 05:01:26;;;;;;;7.93;3.58;;;;;;;16.61;78.91;100029.13;4917142;29;20060;-46
2023/06/20 05:03:53;;;;;;;6.90;3.17;;;;;;;16.64;79.05;100024.72;4917375;29;20610;-45
2023/06/20 05:06:19;;;;;;;7.30;3.25;;;;;;;16.66;79.08;100030.69;4916643;29;20076;-45
2023/06/20 05:08:46;;;;;;;5.07;3.42;;;;;;;16.67;79.28;100026.69;4917468;29;20044;-46
2023/06/20 05:11:13;;;;;;;5.07;3.13;;;;;;;16.68;79.33;100029.09;4917106;29;20396;-45
2023/06/20 05:13:40;;;;;;;7.85;3.90;;;;;;;16.69;79.34;100018.72;4917239;29;20581;-45
2023/06/20 05:16:07;;;;;;;6.88;3.67;;;;;;;16.70;79.53;100009.13;4917190;29;20044;-45
2023/06/20 05:18:34;;;;;;;9.80;4.20;;;;;;;16.72;79.68;100013.13;4917469;29;20082;-46
2023/06/20 05:21:01;;;;;;;7.35;4.13;;;;;;;16.73;79.75;100019.50;4917227;29;20505;-45
2023/06/20 05:23:28;;;;;;;10.02;3.90;;;;;;;16.76;79.86;100015.91;4916240;29;20055;-45
2023/06/20 05:25:55;;;;;;;7.30;4.07;;;;;;;16.79;79.94;100012.28;4904448;29;20367;-45
2023/06/20 05:28:22;;;;;;;5.68;3.83;;;;;;;16.82;79.92;100022.66;4915292;29;20052;-46
2023/06/20 05:30:49;;;;;;;4.88;3.42;;;;;;;16.86;79.90;100026.25;4903552;29;20048;-45
2023/06/20 05:33:15;;;;;;;8.02;3.95;;;;;;;16.90;80.11;100021.44;4916796;29;20052;-49
2023/06/20 05:35:44;;;;;;;5.75;4.05;;;;;;;16.93;80.14;100017.81;4916783;29;20059;-47
2023/06/20 05:38:13;;;;;;;7.35;3.70;;;;;;;16.96;80.28;100014.22;4916978;29;20414;-45
2023/06/20 05:40:39;;;;;;;6.53;4.00;;;;;;;17.01;80.39;100011.00;4915827;29;20565;-46
2023/06/20 05:43:06;;;;;;;7.75;4.60;;;;;;;17.06;80.25;100010.56;4916616;29;20051;-45
2023/06/20 05:45:33;;;;;;;6.72;4.15;;;;;;;17.11;80.18;100004.56;4916713;29;20104;-45
2023/06/20 05:48:00;;;;;;;8.82;3.85;;;;;;;17.14;80.18;100012.13;4916764;29;20107;-45
2023/06/20 05:50:27;;;;;;;6.70;3.70;;;;;;;17.17;80.33;100005.75;4916449;29;20058;-46
2023/06/20 05:52:54;;;;;;;6.90;3.80;;;;;;;17.22;80.27;100008.09;4916524;29;20052;-45
2023/06/20 05:55:22;;;;;;;10.27;4.85;;;;;;;17.24;80.33;100005.69;4916580;29;20048;-45
2023/06/20 05:57:49;;;;;;;6.15;3.85;;;;;;;17.24;80.33;100005.69;4914513;29;20096;-47
2023/06/20 06:00:16;;;;;;;6.20;3.95;;;;;;;17.25;80.55;99996.09;4916339;29;20068;-45
2023/06/20 06:02:46;;;;;;;5.18;3.80;;;;;;;17.28;80.68;99984.09;4915841;29;20139;-45
2023/06/20 06:05:13;;;;;;;9.90;4.55;;;;;;;17.29;80.69;99999.66;4916473;29;20050;-46
2023/06/20 06:07:40;;;;;;;8.02;4.68;;;;;;;17.31;80.82;100000.06;4916465;29;20063;-46
2023/06/20 06:10:08;;;;;;;6.00;4.00;;;;;;;17.36;80.90;99998.84;4916165;29;20048;-46
2023/06/20 06:12:36;;;;;;;8.20;4.55;;;;;;;17.43;80.80;100001.56;4916137;29;20502;-46
2023/06/20 06:15:04;;;;;;;6.82;4.20;;;;;;;17.48;81.02;100009.53;4906649;29;20056;-46
2023/06/20 06:17:32;;;;;;;8.10;4.40;;;;;;;17.54;81.00;100019.94;4915840;29;20083;-52
2023/06/20 06:19:59;;;;;;;5.80;3.85;;;;;;;17.60;81.34;100023.09;4916242;29;20046;-45
2023/06/20 06:22:25;;;;;;;9.68;4.60;;;;;;;17.70;81.13;100019.44;4909490;29;20044;-45
2023/06/20 06:24:52;;;;;;;7.97;4.22;;;;;;;17.77;81.23;100015.75;4914207;29;20100;-45
2023/06/20 06:27:19;;;;;;;10.98;4.00;;;;;;;17.84;81.01;100007.34;4898781;29;20104;-45
2023/06/20 06:29:47;;;;;;;8.70;4.93;;;;;;;17.86;81.26;100008.50;4916102;29;20056;-45
2023/06/20 06:32:15;;;;;;;7.28;3.92;;;;;;;17.86;81.15;100013.31;4913828;29;20044;-46
2023/06/20 06:34:42;;;;;;;6.65;3.67;;;;;;;17.91;81.18;100015.66;4915577;29;20442;-46
2023/06/20 06:37:09;;;;;;;7.90;3.60;;;;;;;17.95;81.30;100019.25;4915637;29;20044;-45
2023/06/20 06:39:37;;;;;;;9.20;3.97;;;;;;;18.00;81.19;100022.38;4915806;29;20048;-45
2023/06/20 06:42:04;;;;;;;5.55;3.60;;;;;;;18.06;81.06;100025.53;4915634;29;20056;-45
2023/06/20 06:44:32;;;;;;;11.45;5.88;;;;;;;18.12;81.04;100015.50;4915662;29;20076;-46
2023/06/20 06:47:00;;;;;;;10.35;4.28;;;;;;;18.15;81.20;100011.88;4914575;29;20053;-45
2023/06/20 06:49:31;;;;;;;5.57;3.58;;;;;;;18.13;81.00;100022.69;4912742;29;20098;-46
2023/06/20 06:51:58;;;;;;;10.80;3.80;;;;;;;18.17;80.75;100017.84;4915568;29;20618;-45
2023/06/20 06:54:25;;;;;;;10.52;4.38;;;;;;;18.17;80.75;100029.84;4915505;29;20048;-45
2023/06/20 06:56:52;;;;;;;7.63;4.00;;;;;;;18.18;80.98;100030.66;4895797;29;20143;-45
2023/06/20 06:59:19;;;;;;;6.13;3.95;;;;;;;18.23;80.83;100033.00;4909196;29;20048;-46
2023/06/20 07:01:46;;;;;;;10.23;4.10;;;;;;;18.28;80.61;100026.94;4914373;29;20467;-46
2023/06/20 07:04:14;;;;;;;8.85;4.60;;;;;;;18.32;80.16;100041.72;4914871;29;20048;-45
2023/06/20 07:06:41;;;;;;;8.77;4.25;;;;;;;18.39;80.47;100043.66;4912185;29;20044;-46
2023/06/20 07:09:09;;;;;;;11.02;5.90;;;;;;;18.43;80.15;100041.63;4915107;29;20063;-48
2023/06/20 07:11:36;;;;;;;8.55;3.97;;;;;;;18.48;80.43;100046.81;4915542;29;20051;-45
2023/06/20 07:14:03;;;;;;;6.57;4.35;;;;;;;18.57;80.02;100047.13;4915062;29;20059;-46
2023/06/20 07:16:31;;;;;;;9.95;4.15;;;;;;;18.71;80.16;100047.78;4915099;29;20103;-46
2023/06/20 07:18:59;;;;;;;11.50;4.53;;;;;;;18.94;80.40;100040.69;4914997;29;20044;-45
2023/06/20 07:21:26;;;;;;;10.65;4.60;;;;;;;19.20;80.54;100034.34;4915385;29;20554;-46
2023/06/20 07:23:53;;;;;;;8.60;4.05;;;;;;;19.44;80.82;100041.69;4897064;29;20446;-45
2023/06/20 07:26:20;;;;;;;7.65;4.25;;;;;;;19.63;81.12;100043.81;4915019;29;20054;-45
2023/06/20 07:28:47;;;;;;;5.57;3.50;;;;;;;19.81;81.18;100044.34;4897436;29;20494;-46
2023/06/20 07:31:18;;;;;;;12.25;4.80;;;;;;;20.01;80.70;100036.78;4915136;29;20044;-46
2023/06/20 07:33:46;;;;;;;6.63;4.33;;;;;;;20.18;80.32;100037.72;4915061;29;20051;-45
2023/06/20 07:36:13;;;;;;;5.18;3.42;;;;;;;20.33;79.41;100021.47;4889718;29;20052;-46
2023/06/20 07:38:40;;;;;;;11.10;3.38;;;;;;;20.45;78.67;100018.00;4911993;29;20055;-48
2023/06/20 07:41:06;;;;;;;7.05;3.38;;;;;;;20.59;78.13;100023.38;4914963;29;20080;-46
2023/06/20 07:43:35;;;;;;;7.80;3.25;;;;;;;20.80;78.33;100028.59;4914670;29;20052;-45
2023/06/20 07:46:02;;;;;;;5.88;3.58;;;;;;;21.09;77.82;100024.00;4914772;29;20063;-45
2023/06/20 07:48:29;;;;;;;4.35;2.40;;;;;;;21.50;77.22;100039.63;4914593;29;20689;-48
2023/06/20 07:50:57;;;;;;;10.32;3.30;;;;;;;22.11;77.02;100046.25;4914881;29;20048;-46
2023/06/20 07:53:24;;;;;;;5.10;2.92;;;;;;;22.83;75.12;100054.47;4915783;29;20387;-45
2023/06/20 07:55:53;;;;;;;6.57;3.03;;;;;;;23.44;72.34;100049.50;4917745;29;20052;-46
2023/06/20 07:58:20;;;;;;;5.65;2.60;;;;;;;23.81;69.95;100049.97;4906014;29;20050;-43
2023/06/20 08:00:47;;;;;;;7.32;3.05;;;;;;;24.01;67.77;100048.50;4918521;29;20730;-45
2023/06/20 08:03:14;;;;;;;4.65;2.58;;;;;;;24.18;65.71;100037.88;4918404;29;20119;-43
2023/06/20 08:05:41;;;;;;;7.85;3.58;;;;;;;24.64;64.01;100042.75;4917513;29;20095;-43
2023/06/20 08:08:08;;;;;;;6.40;2.60;;;;;;;25.22;62.04;100045.91;4905891;29;20060;-51
2023/06/20 08:10:35;;;;;;;5.35;2.95;;;;;;;25.94;60.44;100054.06;4918183;29;20048;-46
2023/06/20 08:13:01;;;;;;;5.07;2.65;;;;;;;26.59;58.58;100050.94;4916002;29;20134;-46
2023/06/20 08:15:28;;;;;;;6.00;3.00;;;;;;;27.13;56.50;100050.19;4916953;29;20056;-43
2023/06/20 08:17:55;;;;;;;5.68;2.60;;;;;;;27.46;55.15;100043.81;4918582;29;20040;-43
2023/06/20 08:20:22;;;;;;;7.88;3.20;;;;;;;27.57;53.74;100046.94;4917998;29;20055;-45
2023/06/20 08:22:49;;;;;;;3.92;2.80;;;;;;;27.65;52.22;100042.50;4918373;29;20040;-45
2023/06/20 08:25:16;;;;;;;4.85;3.05;;;;;;;27.59;50.81;100047.25;4917884;29;20052;-45
2023/06/20 08:27:43;;;;;;;5.47;2.35;;;;;;;27.09;50.30;100049.53;4916195;29;20048;-46
2023/06/20 08:30:11;;;;;;;4.38;2.72;;;;;;;26.70;51.31;100035.47;4916238;29;20456;-46
2023/06/20 08:32:41;;;;;;;9.07;3.35;;;;;;;27.03;50.82;100030.78;4918262;29;20032;-46
2023/06/20 08:35:09;;;;;;;5.80;2.58;;;;;;;26.96;50.96;100034.72;4918133;29;20079;-45
2023/06/20 08:37:37;;;;;;;4.38;3.53;;;;;;;26.73;50.70;100026.81;4917858;29;20047;-46
2023/06/20 08:40:08;;;;;;;7.57;3.42;;;;;;;26.50;50.44;100024.59;4900951;29;20052;-47
2023/06/20 08:42:35;;;;;;;3.35;2.35;;;;;;;26.15;50.93;100026.09;4917997;29;20076;-46
2023/06/20 08:45:02;;;;;;;6.80;3.17;;;;;;;26.30;51.55;100027.06;4917800;29;20066;-45
2023/06/20 08:47:29;;;;;;;5.38;2.60;;;;;;;27.07;50.81;100037.88;4910899;29;20061;-46
2023/06/20 08:49:56;;;;;;;5.60;3.10;;;;;;;27.91;49.25;100029.44;4917297;29;20482;-46
2023/06/20 08:52:30;;;;;;;7.28;2.72;;;;;;;28.60;48.09;100026.34;4917654;29;20178;-46
2023/06/20 08:54:59;;;;;;;6.97;2.55;;;;;;;29.16;46.71;100031.13;4917475;29;20051;-45
2023/06/20 08:57:26;;;;;;;5.65;2.60;;;;;;;29.49;45.40;100014.63;4917080;29;20083;-46
2023/06/20 08:59:55;;;;;;;8.00;2.90;;;;;;;29.83;44.38;100012.38;4917325;29;20485;-46
2023/06/20 09:02:22;;;;;;;7.82;2.75;;;;;;;30.22;43.72;100016.59;4917217;29;20047;-45
2023/06/20 09:05:03;;;;;;;4.90;2.20;;;;;;;30.81;42.84;100013.47;4915253;29;20072;-46
2023/06/20 09:07:35;;;;;;;4.65;2.33;;;;;;;31.11;41.94;100009.94;4917319;29;20052;-48
2023/06/20 09:10:03;;;;;;;6.32;2.42;;;;;;;31.15;41.26;100009.72;4917617;29;20048;-47
2023/06/20 09:12:53;;;;;;;6.03;2.58;;;;;;;31.16;41.35;100017.78;4916997;29;20058;-47
2023/06/20 09:15:22;;;;;;;4.20;2.60;;;;;;;31.38;40.56;100020.09;4910432;29;20076;-46
2023/06/20 09:18:00;;;;;;;3.30;2.25;;;;;;;30.69;39.96;100012.56;4917086;29;20048;-46
2023/06/20 09:20:29;;;;;;;4.72;2.55;;;;;;;29.67;41.42;100007.94;4916895;29;20056;-47
2023/06/20 09:22:58;;;;;;;5.43;2.45;;;;;;;29.87;41.27;99996.63;4916332;29;20051;-47
2023/06/20 09:25:27;;;;;;;10.35;2.65;;;;;;;29.88;41.05;100003.13;4916983;29;20391;-49
2023/06/20 09:27:55;;;;;;;8.27;2.65;;;;;;;29.80;40.87;100017.00;4915758;29;20091;-46
2023/06/20 09:30:22;;;;;;;4.68;2.50;;;;;;;28.94;41.71;100007.91;4916849;29;20048;-45
2023/06/20 09:32:52;;;;;;;7.65;2.92;;;;;;;28.18;43.05;99992.31;4916982;29;20561;-46
2023/06/20 09:35:20;;;;;;;7.65;3.53;;;;;;;27.74;44.46;100000.59;4916567;29;20139;-47
2023/06/20 09:37:49;;;;;;;8.13;2.47;;;;;;;27.70;44.23;99999.97;4915117;29;20059;-45
2023/06/20 09:40:24;;;;;;;4.05;2.15;;;;;;;27.26;45.09;99996.00;4916563;29;20052;-45
2023/06/20 09:42:56;;;;;;;5.38;2.97;;;;;;;26.94;45.94;100006.00;4916052;29;20076;-45
2023/06/20 09:45:23;;;;;;;5.78;2.58;;;;;;;26.92;45.95;100008.53;4916658;29;20103;-46
2023/06/20 09:47:51;;;;;;;5.03;2.20;;;;;;;26.75;46.58;100001.53;4916316;29;20040;-46
2023/06/20 09:50:21;;;;;;;3.72;2.38;;;;;;;26.52;47.13;100002.97;4904267;29;20044;-45
2023/06/20 09:52:55;;;;;;;4.55;2.60;;;;;;;26.03;47.69;99997.34;4916383;29;20052;-45
2023/06/20 09:55:24;;;;;;;5.78;2.45;;;;;;;25.68;48.66;99993.09;4915808;29;20048;-46
2023/06/20 09:57:53;;;;;;;3.67;2.40;;;;;;;25.46;49.30;99995.22;4916814;29;20084;-45
2023/06/20 10:00:23;;;;;;;6.50;2.50;;;;;;;25.15;49.98;99988.72;4916395;29;20450;-47
2023/06/20 10:03:00;;;;;;;7.10;2.60;;;;;;;24.86;50.77;99999.53;4915982;29;20056;-45
2023/06/20 10:05:28;;;;;;;4.65;2.20;;;;;;;24.55;51.32;100003.03;4915094;29;20084;-47
2023/06/20 10:07:58;;;;;;;5.55;2.28;;;;;;;24.31;51.82;100006.72;4913633;29;20040;-47
2023/06/20 10:10:26;;;;;;;6.30;3.00;;;;;;;24.08;52.67;100008.72;4914398;29;20063;-46
2023/06/20 10:12:55;;;;;;;5.00;3.03;;;;;;;24.71;52.87;99996.41;4915012;29;20166;-46
2023/06/20 10:15:22;;;;;;;9.98;3.83;;;;;;;25.76;51.39;100008.56;4916082;29;20070;-45
2023/06/20 10:17:49;;;;;;;4.72;2.67;;;;;;;26.55;50.67;100001.25;4915764;29;20036;-46
2023/06/20 10:20:37;;;;;;;8.98;2.90;;;;;;;27.14;49.91;100011.94;4916018;29;20060;-45
2023/06/20 10:23:07;;;;;;;4.43;2.45;;;;;;;27.18;49.41;100008.97;4916074;29;20059;-45
2023/06/20 10:25:35;;;;;;;6.75;3.00;;;;;;;27.00;50.17;100001.25;4916209;29;20114;-45
2023/06/20 10:28:04;;;;;;;3.58;2.38;;;;;;;27.04;49.66;99998.25;4916000;29;20076;-46
2023/06/20 10:30:46;;;;;;;6.05;2.78;;;;;;;26.72;50.38;99996.81;4915250;29;20044;-45
2023/06/20 10:33:13;;;;;;;8.27;2.78;;;;;;;26.06;50.78;100003.31;4915906;29;20134;-46
2023/06/20 10:35:48;;;;;;;8.70;3.42;;;;;;;25.23;51.95;100007.03;4915643;29;20052;-47
2023/06/20 10:38:15;;;;;;;;;;;;;;;24.56;53.36;100018.78;4914906;29;20256;-45
2023/06/20 10:40:42;;;;;;;4.70;2.85;;;;;;;24.46;53.98;100002.97;4915996;29;20014;-46
2023/06/20 10:43:17;;;;;;;8.45;2.70;;;;;;;24.75;53.99;100000.66;4915527;29;20570;-45
2023/06/20 10:45:59;;;;;;;3.90;2.38;;;;;;;25.15;54.06;99998.00;4897769;29;20044;-45
2023/06/20 10:48:26;;;;;;;5.03;2.40;;;;;;;25.48;54.25;99997.59;4914288;29;20099;-46
2023/06/20 10:51:00;;;;;;;6.82;3.80;;;;;;;25.71;54.01;100014.06;4915513;29;20406;-45
2023/06/20 10:53:28;;;;;;;4.68;2.15;;;;;;;25.89;53.70;100006.41;4915464;29;20055;-45
2023/06/20 10:55:55;;;;;;;3.67;2.25;;;;;;;25.89;53.33;99997.91;4915439;29;20051;-45
2023/06/20 10:58:22;;;;;;;3.47;2.20;;;;;;;25.63;53.21;100002.22;4907865;29;20048;-45
2023/06/20 11:00:58;;;;;;;5.30;2.40;;;;;;;25.17;54.16;100008.88;4915141;29;20058;-45
2023/06/20 11:03:25;;;;;;;5.22;2.40;;;;;;;24.77;54.21;100008.72;4914324;29;20087;-45
2023/06/20 11:05:55;;;;;;;6.00;2.75;;;;;;;24.42;55.15;100021.28;4914571;29;20044;-48
2023/06/20 11:08:27;;;;;;;8.00;2.90;;;;;;;24.05;55.58;100020.91;4915172;29;20491;-45
2023/06/20 11:10:54;;;;;;;8.68;3.28;;;;;;;23.70;56.53;100015.59;4915494;29;20447;-46
2023/06/20 11:13:23;;;;;;;6.90;3.55;;;;;;;23.34;57.57;100011.03;4915430;29;20063;-47
2023/06/20 11:15:50;;;;;;;8.52;3.65;;;;;;;23.05;58.37;100015.94;4915036;29;20414;-45
2023/06/20 11:18:17;;;;;;;8.15;3.60;;;;;;;22.80;59.25;100004.53;4915335;29;20075;-51
2023/06/20 11:20:45;;;;;;;10.63;3.67;;;;;;;22.59;59.81;100016.41;4914329;29;20052;-45
2023/06/20 11:23:12;;;;;;;8.55;3.83;;;;;;;22.44;60.61;100016.78;4915007;29;20498;-45
2023/06/20 11:25:43;;;;;;;11.27;3.80;;;;;;;22.39;60.88;100013.72;4915309;29;20095;-44
2023/06/20 11:28:14;;;;;;;6.68;2.88;;;;;;;22.28;60.48;100016.81;4914291;29;20043;-43
2023/06/20 11:30:45;;;;;;;5.95;3.20;;;;;;;22.10;61.40;100019.31;4915062;29;20040;-44